Time;durP1;ratioP1;P1;durP2;ratioP2;P2;SDS_P1;SDS_P2;PMS_P1;PMS_P2;Temp;Humidity;BMP_temperature;BMP_pressure;BME280_temperature;BME280_humidity;BME280_pressure;Samples;Min_cycle;Max_cycle;Signal;HPM_P1;HPM_P2
2024/03/04 00:00:10;;;;;;;14.68;3.72;;;;;;;;;;5007342;28;25052;-69
2024/03/04 00:02:36;;;;;;;20.08;4.50;;;;;;;;;;4988903;28;25071;-68
2024/03/04 00:05:03;;;;;;;13.27;4.75;;;;;;;;;;4992682;28;25100;-68
2024/03/04 00:07:29;;;;;;;10.23;4.05;;;;;;;;;;4999468;28;25138;-69
2024/03/04 00:09:55;;;;;;;9.95;4.35;;;;;;;;;;5006796;28;25071;-68
2024/03/04 00:12:21;;;;;;;9.20;3.88;;;;;;;;;;5009446;28;25055;-67
2024/03/04 00:14:49;;;;;;;14.80;4.97;;;;;;;;;;5004548;28;25468;-68
2024/03/04 00:17:16;;;;;;;12.57;5.00;;;;;;;;;;5005414;28;25118;-67
2024/03/04 00:19:42;;;;;;;11.30;4.40;;;;;;;;;;4990606;28;25102;-69
2024/03/04 00:22:09;;;;;;;21.10;5.32;;;;;;;;;;4988731;28;25107;-67
2024/03/04 00:24:35;;;;;;;14.63;5.60;;;;;;;;;;5000330;28;25068;-68
2024/03/04 00:27:01;;;;;;;11.27;4.72;;;;;;;;;;4991793;28;25053;-66
2024/03/04 00:29:30;;;;;;;14.48;4.68;;;;;;;;;;5000578;28;25068;-68
2024/03/04 00:31:56;;;;;;;10.02;4.18;;;;;;;;;;5004171;28;25057;-67
2024/03/04 00:34:22;;;;;;;11.57;3.88;;;;;;;;;;4983346;28;25070;-66
2024/03/04 00:36:48;;;;;;;6.82;3.60;;;;;;;;;;5009556;28;25043;-68
2024/03/04 00:39:14;;;;;;;9.45;3.78;;;;;;;;;;4986221;28;25072;-67
2024/03/04 00:41:40;;;;;;;5.30;2.90;;;;;;;;;;5001752;28;25139;-68
2024/03/04 00:44:06;;;;;;;8.88;3.67;;;;;;;;;;4994484;28;25066;-68
2024/03/04 00:46:32;;;;;;;6.40;2.92;;;;;;;;;;5005272;28;25043;-67
2024/03/04 00:48:58;;;;;;;5.50;2.90;;;;;;;;;;5000714;28;25092;-68
2024/03/04 00:51:24;;;;;;;6.68;2.38;;;;;;;;;;5000338;28;25064;-66
2024/03/04 00:53:50;;;;;;;3.05;2.40;;;;;;;;;;4997116;28;25082;-65
2024/03/04 00:56:17;;;;;;;5.15;1.88;;;;;;;;;;5003142;28;25107;-67
2024/03/04 00:58:43;;;;;;;5.82;2.42;;;;;;;;;;4983125;28;25079;-68
2024/03/04 01:01:09;;;;;;;6.63;1.70;;;;;;;;;;4987343;28;25130;-69
2024/03/04 01:03:35;;;;;;;6.78;1.92;;;;;;;;;;5010479;28;25047;-66
2024/03/04 01:06:02;;;;;;;3.58;2.50;;;;;;;;;;5019549;28;25072;-69
2024/03/04 01:08:28;;;;;;;2.80;1.88;;;;;;;;;;5022991;28;25116;-67
2024/03/04 01:10:55;;;;;;;6.57;3.20;;;;;;;;;;5000842;28;25144;-68
2024/03/04 01:13:21;;;;;;;6.95;2.42;;;;;;;;;;5019803;28;25056;-68
2024/03/04 01:15:47;;;;;;;11.35;3.05;;;;;;;;;;5010863;28;25069;-67
2024/03/04 01:18:14;;;;;;;14.48;3.10;;;;;;;;;;4995243;28;25069;-65
2024/03/04 01:20:41;;;;;;;9.07;2.75;;;;;;;;;;4992135;28;25116;-68
2024/03/04 01:23:08;;;;;;;7.57;2.25;;;;;;;;;;4999557;28;25090;-66
2024/03/04 01:25:34;;;;;;;11.15;2.88;;;;;;;;;;4998684;28;25133;-67
2024/03/04 01:28:00;;;;;;;7.80;2.70;;;;;;;;;;5004729;28;25130;-67
2024/03/04 01:30:29;;;;;;;7.90;2.70;;;;;;;;;;4979590;28;25117;-65
2024/03/04 01:32:56;;;;;;;7.68;2.55;;;;;;;;;;4988316;28;25120;-67
2024/03/04 01:35:23;;;;;;;5.40;1.85;;;;;;;;;;5003086;28;25076;-65
2024/03/04 01:37:49;;;;;;;7.57;2.45;;;;;;;;;;5006194;28;25144;-65
2024/03/04 01:40:16;;;;;;;11.02;2.67;;;;;;;;;;5003947;28;25078;-65
2024/03/04 01:42:45;;;;;;;6.68;2.33;;;;;;;;;;4995289;28;25049;-65
2024/03/04 01:45:16;;;;;;;5.05;1.95;;;;;;;;;;5003810;28;25066;-66
2024/03/04 01:47:42;;;;;;;8.95;1.70;;;;;;;;;;4994925;28;25133;-66
2024/03/04 01:50:09;;;;;;;5.78;2.17;;;;;;;;;;4984492;28;25152;-65
2024/03/04 01:52:36;;;;;;;6.93;2.08;;;;;;;;;;5003207;28;25133;-65
2024/03/04 01:55:02;;;;;;;7.93;2.22;;;;;;;;;;4989956;28;25056;-68
2024/03/04 01:57:28;;;;;;;8.35;2.00;;;;;;;;;;5014608;28;25060;-64
2024/03/04 01:59:54;;;;;;;12.00;2.30;;;;;;;;;;5013831;28;25056;-64
2024/03/04 02:02:21;;;;;;;6.57;1.98;;;;;;;;;;5014683;28;25063;-66
2024/03/04 02:04:47;;;;;;;8.45;1.90;;;;;;;;;;5016768;28;25070;-67
2024/03/04 02:07:16;;;;;;;6.38;1.75;;;;;;;;;;4999026;28;25098;-65
2024/03/04 02:09:42;;;;;;;4.75;1.55;;;;;;;;;;4998226;28;25073;-66
2024/03/04 02:12:09;;;;;;;6.55;1.73;;;;;;;;;;4995991;28;25111;-65
2024/03/04 02:14:36;;;;;;;7.82;1.55;;;;;;;;;;4979186;28;25135;-66
2024/03/04 02:17:02;;;;;;;6.25;1.40;;;;;;;;;;4998822;28;25100;-65
2024/03/04 02:19:28;;;;;;;4.63;1.90;;;;;;;;;;4993432;28;25149;-65
2024/03/04 02:22:02;;;;;;;3.95;1.60;;;;;;;;;;4981275;28;25059;-66
2024/03/04 02:24:28;;;;;;;4.90;2.00;;;;;;;;;;4989639;28;25067;-64
2024/03/04 02:26:54;;;;;;;8.32;1.60;;;;;;;;;;4998560;28;25086;-65
2024/03/04 02:29:20;;;;;;;9.05;2.65;;;;;;;;;;4998603;28;25077;-66
2024/03/04 02:31:47;;;;;;;5.43;1.42;;;;;;;;;;5005290;28;25071;-66
2024/03/04 02:34:14;;;;;;;6.05;1.67;;;;;;;;;;5009363;28;25054;-66
2024/03/04 02:36:41;;;;;;;3.03;1.60;;;;;;;;;;5008199;28;25119;-65
2024/03/04 02:39:10;;;;;;;4.40;1.48;;;;;;;;;;5004984;28;25074;-65
2024/03/04 02:41:37;;;;;;;3.50;1.60;;;;;;;;;;4998372;28;25052;-65
2024/03/04 02:44:03;;;;;;;3.42;1.45;;;;;;;;;;4996130;28;25058;-66
2024/03/04 02:46:29;;;;;;;3.85;1.35;;;;;;;;;;4999131;28;25067;-66
2024/03/04 02:48:55;;;;;;;5.00;1.35;;;;;;;;;;4977190;28;25117;-65
2024/03/04 02:51:21;;;;;;;3.10;1.10;;;;;;;;;;4994053;28;25159;-66
2024/03/04 02:53:47;;;;;;;6.40;1.60;;;;;;;;;;4986884;28;25073;-66
2024/03/04 02:56:13;;;;;;;6.85;1.60;;;;;;;;;;4986019;28;25132;-66
2024/03/04 02:58:39;;;;;;;4.32;1.65;;;;;;;;;;4981317;28;25054;-65
2024/03/04 03:01:05;;;;;;;6.43;1.67;;;;;;;;;;4997247;28;25065;-64
2024/03/04 03:03:31;;;;;;;1.73;1.48;;;;;;;;;;4982063;28;25057;-65
2024/03/04 03:05:57;;;;;;;4.97;1.63;;;;;;;;;;4989512;28;25132;-65
2024/03/04 03:08:23;;;;;;;8.02;1.40;;;;;;;;;;5001064;28;25100;-66
2024/03/04 03:10:49;;;;;;;5.53;1.35;;;;;;;;;;4982752;28;25130;-65
2024/03/04 03:13:15;;;;;;;4.45;1.40;;;;;;;;;;5002669;28;25054;-64
2024/03/04 03:15:41;;;;;;;6.00;1.67;;;;;;;;;;4992400;28;25092;-63
2024/03/04 03:18:08;;;;;;;4.80;1.48;;;;;;;;;;4997764;28;25074;-65
2024/03/04 03:20:34;;;;;;;2.40;1.20;;;;;;;;;;5000695;28;25107;-65
2024/03/04 03:23:00;;;;;;;6.47;1.35;;;;;;;;;;5012558;28;25079;-64
2024/03/04 03:25:26;;;;;;;5.43;1.20;;;;;;;;;;5020228;28;25100;-64
2024/03/04 03:27:52;;;;;;;8.48;1.52;;;;;;;;;;5015775;28;25048;-65
2024/03/04 03:30:19;;;;;;;4.20;1.08;;;;;;;;;;4991362;28;25091;-64
2024/03/04 03:32:45;;;;;;;5.65;1.23;;;;;;;;;;4997633;28;25072;-64
2024/03/04 03:35:11;;;;;;;4.50;1.40;;;;;;;;;;5000819;28;25108;-65
2024/03/04 03:37:37;;;;;;;5.63;1.30;;;;;;;;;;4996082;28;25111;-66
2024/03/04 03:40:04;;;;;;;3.90;1.40;;;;;;;;;;5001864;28;25074;-65
2024/03/04 03:42:33;;;;;;;4.53;1.10;;;;;;;;;;4983209;28;25049;-65
2024/03/04 03:44:59;;;;;;;3.60;1.35;;;;;;;;;;5000238;28;25077;-64
2024/03/04 03:47:25;;;;;;;5.20;1.10;;;;;;;;;;4996803;28;25054;-65
2024/03/04 03:49:51;;;;;;;5.22;1.23;;;;;;;;;;4995730;28;25046;-65
2024/03/04 03:52:17;;;;;;;5.13;1.40;;;;;;;;;;4996404;28;25071;-65
2024/03/04 03:54:43;;;;;;;2.17;1.02;;;;;;;;;;4999323;28;25045;-63
2024/03/04 03:57:09;;;;;;;5.80;1.10;;;;;;;;;;5004451;28;25078;-64
2024/03/04 03:59:35;;;;;;;3.08;0.90;;;;;;;;;;4987227;28;25076;-65
2024/03/04 04:02:01;;;;;;;3.92;1.10;;;;;;;;;;4997209;28;25051;-65
2024/03/04 04:04:27;;;;;;;5.50;1.00;;;;;;;;;;4985168;28;25060;-67
2024/03/04 04:06:53;;;;;;;6.20;1.30;;;;;;;;;;4995957;28;25077;-64
2024/03/04 04:09:19;;;;;;;6.13;1.23;;;;;;;;;;4987122;28;25065;-65
2024/03/04 04:11:45;;;;;;;3.22;1.00;;;;;;;;;;4999970;28;25059;-64
2024/03/04 04:14:11;;;;;;;4.03;1.13;;;;;;;;;;4982877;28;25063;-65
2024/03/04 04:16:37;;;;;;;8.27;1.92;;;;;;;;;;5000653;28;25077;-63
2024/03/04 04:19:04;;;;;;;4.60;1.38;;;;;;;;;;4981604;28;25060;-64
2024/03/04 04:21:31;;;;;;;3.10;1.05;;;;;;;;;;4998542;28;25089;-62
2024/03/04 04:23:57;;;;;;;4.70;1.25;;;;;;;;;;4982498;28;25086;-65
2024/03/04 04:26:26;;;;;;;4.68;1.15;;;;;;;;;;5003337;28;25091;-64
2024/03/04 04:28:52;;;;;;;3.28;0.90;;;;;;;;;;5001492;28;25048;-65
2024/03/04 04:31:19;;;;;;;4.53;1.20;;;;;;;;;;4995966;28;25070;-65
2024/03/04 04:33:45;;;;;;;2.08;1.10;;;;;;;;;;4995784;28;25133;-64
2024/03/04 04:36:12;;;;;;;4.10;1.65;;;;;;;;;;4996658;28;25051;-63
2024/03/04 04:38:38;;;;;;;4.22;1.13;;;;;;;;;;5001117;28;25088;-64
2024/03/04 04:41:04;;;;;;;8.30;1.30;;;;;;;;;;4999023;28;25073;-65
2024/03/04 04:43:31;;;;;;;5.13;1.20;;;;;;;;;;5000317;28;25081;-66
2024/03/04 04:45:58;;;;;;;8.00;1.77;;;;;;;;;;4999592;28;25079;-65
2024/03/04 04:48:24;;;;;;;3.20;1.30;;;;;;;;;;5001030;28;25152;-65
2024/03/04 04:50:50;;;;;;;3.63;1.20;;;;;;;;;;4998934;28;25078;-64
2024/03/04 04:53:16;;;;;;;8.30;1.40;;;;;;;;;;4982320;28;25068;-65
2024/03/04 04:55:42;;;;;;;3.35;1.30;;;;;;;;;;4996855;28;25155;-64
2024/03/04 04:58:08;;;;;;;4.90;1.30;;;;;;;;;;5000031;28;25092;-66
2024/03/04 05:00:34;;;;;;;4.45;1.10;;;;;;;;;;4997213;28;25070;-63
2024/03/04 05:03:00;;;;;;;3.80;1.70;;;;;;;;;;5001483;28;25133;-64
2024/03/04 05:05:26;;;;;;;5.60;1.15;;;;;;;;;;5001365;28;25062;-65
2024/03/04 05:07:53;;;;;;;5.78;1.30;;;;;;;;;;4994914;28;25096;-65
2024/03/04 05:10:19;;;;;;;8.88;1.92;;;;;;;;;;5002230;28;25051;-65
2024/03/04 05:12:48;;;;;;;1.83;1.02;;;;;;;;;;4996975;28;25131;-65
2024/03/04 05:15:14;;;;;;;4.45;1.10;;;;;;;;;;4995252;28;25172;-64
2024/03/04 05:17:40;;;;;;;4.43;1.20;;;;;;;;;;5002279;28;25104;-66
2024/03/04 05:20:07;;;;;;;5.75;1.38;;;;;;;;;;4998804;28;25162;-65
2024/03/04 05:22:33;;;;;;;8.20;1.88;;;;;;;;;;4995813;28;25063;-65
2024/03/04 05:24:59;;;;;;;4.57;1.50;;;;;;;;;;5000871;28;25068;-63
2024/03/04 05:27:26;;;;;;;3.22;0.90;;;;;;;;;;4998444;28;25067;-64
2024/03/04 05:29:53;;;;;;;5.88;1.25;;;;;;;;;;5004322;28;25065;-67
2024/03/04 05:32:19;;;;;;;6.43;1.58;;;;;;;;;;4995361;28;25069;-63
2024/03/04 05:34:45;;;;;;;4.45;1.63;;;;;;;;;;4978184;28;25132;-64
2024/03/04 05:37:11;;;;;;;7.70;2.00;;;;;;;;;;5004468;28;25092;-63
2024/03/04 05:39:38;;;;;;;5.15;1.35;;;;;;;;;;4998467;28;25080;-65
2024/03/04 05:42:04;;;;;;;3.63;1.20;;;;;;;;;;5005304;28;25061;-66
2024/03/04 05:44:30;;;;;;;4.80;1.20;;;;;;;;;;5013411;28;25090;-65
2024/03/04 05:46:56;;;;;;;2.85;1.35;;;;;;;;;;5021752;28;25076;-65
2024/03/04 05:49:22;;;;;;;3.95;1.10;;;;;;;;;;5017132;28;25136;-65
2024/03/04 05:51:48;;;;;;;12.73;1.35;;;;;;;;;;5005868;28;25080;-66
2024/03/04 05:54:14;;;;;;;5.53;1.30;;;;;;;;;;4987238;28;25061;-65
2024/03/04 05:56:44;;;;;;;3.85;1.48;;;;;;;;;;5003988;28;25076;-63
2024/03/04 05:59:10;;;;;;;4.50;1.90;;;;;;;;;;4980257;28;25067;-63
2024/03/04 06:01:37;;;;;;;5.82;1.50;;;;;;;;;;5001834;28;25079;-64
2024/03/04 06:04:03;;;;;;;4.53;2.20;;;;;;;;;;4999880;28;25066;-64
2024/03/04 06:06:29;;;;;;;5.70;2.13;;;;;;;;;;5002812;28;25110;-63
2024/03/04 06:08:58;;;;;;;5.88;1.42;;;;;;;;;;4993531;28;25054;-64
2024/03/04 06:11:24;;;;;;;2.65;1.75;;;;;;;;;;4985755;28;25031;-64
2024/03/04 06:13:50;;;;;;;4.97;1.70;;;;;;;;;;4997065;28;25151;-66
2024/03/04 06:16:16;;;;;;;7.28;1.40;;;;;;;;;;4985679;28;25103;-64
2024/03/04 06:18:42;;;;;;;3.58;1.50;;;;;;;;;;5001045;28;25071;-65
2024/03/04 06:21:08;;;;;;;6.32;1.60;;;;;;;;;;4982399;28;25082;-64
2024/03/04 06:23:35;;;;;;;8.75;1.65;;;;;;;;;;4999049;28;25152;-65
2024/03/04 06:26:01;;;;;;;5.78;1.80;;;;;;;;;;4984418;28;25076;-67
2024/03/04 06:28:27;;;;;;;4.53;1.50;;;;;;;;;;5003209;28;25073;-65
2024/03/04 06:30:53;;;;;;;5.10;1.50;;;;;;;;;;4998231;28;25286;-64
2024/03/04 06:33:19;;;;;;;9.60;2.15;;;;;;;;;;4994084;28;25071;-65
2024/03/04 06:35:45;;;;;;;4.95;1.40;;;;;;;;;;4999708;28;25060;-65
2024/03/04 06:38:11;;;;;;;6.80;1.60;;;;;;;;;;4998447;28;25086;-66
2024/03/04 06:40:37;;;;;;;4.13;2.10;;;;;;;;;;5000430;28;25072;-65
2024/03/04 06:43:03;;;;;;;3.25;1.40;;;;;;;;;;5002571;28;25060;-66
2024/03/04 06:45:29;;;;;;;4.45;1.67;;;;;;;;;;5000626;28;25101;-66
2024/03/04 06:48:00;;;;;;;3.40;1.60;;;;;;;;;;4994226;28;25156;-64
2024/03/04 06:50:26;;;;;;;7.35;2.03;;;;;;;;;;4996331;28;25156;-65
2024/03/04 06:52:51;;;;;;;3.38;1.95;;;;;;;;;;4983493;28;25114;-64
2024/03/04 06:55:17;;;;;;;5.20;1.88;;;;;;;;;;4982913;28;25095;-65
2024/03/04 06:57:43;;;;;;;4.05;1.95;;;;;;;;;;4999757;28;25070;-65
2024/03/04 07:00:11;;;;;;;5.45;2.38;;;;;;;;;;5003314;28;25174;-64
2024/03/04 07:02:37;;;;;;;4.38;1.85;;;;;;;;;;4985172;28;25076;-66
2024/03/04 07:05:04;;;;;;;4.28;1.80;;;;;;;;;;5003803;28;25073;-65
2024/03/04 07:07:30;;;;;;;9.80;2.80;;;;;;;;;;4983674;28;25159;-65
2024/03/04 07:09:56;;;;;;;6.60;2.40;;;;;;;;;;5000363;28;25104;-66
2024/03/04 07:12:22;;;;;;;6.50;2.22;;;;;;;;;;5001112;28;25097;-65
2024/03/04 07:14:48;;;;;;;6.13;2.67;;;;;;;;;;4992470;28;25085;-65
2024/03/04 07:17:14;;;;;;;7.25;2.40;;;;;;;;;;4999840;28;25150;-66
2024/03/04 07:19:40;;;;;;;8.80;2.85;;;;;;;;;;5002614;28;25086;-65
2024/03/04 07:22:06;;;;;;;8.27;2.60;;;;;;;;;;5003069;28;25077;-66
2024/03/04 07:24:32;;;;;;;6.82;2.40;;;;;;;;;;4995911;28;25459;-64
2024/03/04 07:26:58;;;;;;;4.75;2.25;;;;;;;;;;5000680;28;25126;-66
2024/03/04 07:29:24;;;;;;;3.63;2.03;;;;;;;;;;5002131;28;25082;-67
2024/03/04 07:31:50;;;;;;;5.90;2.35;;;;;;;;;;5002453;28;25080;-66
2024/03/04 07:34:16;;;;;;;7.82;2.72;;;;;;;;;;4986751;28;25160;-68
2024/03/04 07:36:41;;;;;;;4.68;2.10;;;;;;;;;;5001000;28;25164;-65
2024/03/04 07:39:08;;;;;;;7.93;2.33;;;;;;;;;;4990264;28;25074;-68
2024/03/04 07:41:34;;;;;;;7.88;2.53;;;;;;;;;;5000867;28;25129;-66
2024/03/04 07:44:00;;;;;;;11.05;2.22;;;;;;;;;;5003108;28;25099;-68
2024/03/04 07:46:26;;;;;;;8.20;2.47;;;;;;;;;;5002073;28;25096;-67
2024/03/04 07:48:52;;;;;;;6.97;2.92;;;;;;;;;;5002440;28;25127;-66
2024/03/04 07:51:18;;;;;;;9.93;2.80;;;;;;;;;;5002419;28;25068;-66
2024/03/04 07:53:44;;;;;;;9.02;2.80;;;;;;;;;;4991836;28;25068;-68
2024/03/04 07:56:10;;;;;;;4.15;2.47;;;;;;;;;;5003697;28;25060;-66
2024/03/04 07:58:36;;;;;;;7.40;3.08;;;;;;;;;;5013667;28;25078;-67
2024/03/04 08:01:03;;;;;;;7.63;2.53;;;;;;;;;;5026644;28;25071;-67
2024/03/04 08:03:28;;;;;;;7.70;2.90;;;;;;;;;;5009592;28;25072;-67
2024/03/04 08:05:55;;;;;;;13.18;2.58;;;;;;;;;;5025583;28;25091;-68
2024/03/04 08:08:21;;;;;;;7.93;2.78;;;;;;;;;;4999292;28;25048;-67
2024/03/04 08:10:47;;;;;;;5.38;2.55;;;;;;;;;;5006562;28;25054;-66
2024/03/04 08:13:13;;;;;;;9.25;3.92;;;;;;;;;;4994293;28;25071;-66
2024/03/04 08:15:39;;;;;;;7.38;2.80;;;;;;;;;;4999444;28;25056;-67
2024/03/04 08:18:05;;;;;;;7.75;3.00;;;;;;;;;;5005057;28;25077;-66
2024/03/04 08:20:31;;;;;;;7.57;3.20;;;;;;;;;;5007204;28;25067;-66
2024/03/04 08:22:57;;;;;;;7.55;3.47;;;;;;;;;;4987530;28;25069;-66
2024/03/04 08:25:23;;;;;;;10.45;3.40;;;;;;;;;;5003835;28;25062;-67
2024/03/04 08:27:49;;;;;;;10.20;3.08;;;;;;;;;;5003719;28;25056;-66
2024/03/04 08:30:15;;;;;;;12.63;3.72;;;;;;;;;;4998347;28;25066;-67
2024/03/04 08:32:44;;;;;;;6.43;3.30;;;;;;;;;;5000443;28;25051;-66
2024/03/04 08:35:10;;;;;;;9.07;3.55;;;;;;;;;;5005599;28;25188;-66
2024/03/04 08:37:36;;;;;;;8.80;3.95;;;;;;;;;;4997813;28;25072;-66
2024/03/04 08:40:04;;;;;;;12.30;3.58;;;;;;;;;;5002664;28;25072;-67
2024/03/04 08:42:30;;;;;;;12.35;4.28;;;;;;;;;;4998077;28;25063;-68
2024/03/04 08:44:56;;;;;;;10.05;3.95;;;;;;;;;;5000688;28;25162;-67
2024/03/04 08:47:22;;;;;;;10.70;4.38;;;;;;;;;;5007639;28;25088;-66
2024/03/04 08:49:48;;;;;;;8.57;4.38;;;;;;;;;;5005338;28;25087;-67
2024/03/04 08:52:14;;;;;;;8.80;4.05;;;;;;;;;;4996971;28;25063;-65
2024/03/04 08:54:40;;;;;;;12.70;3.88;;;;;;;;;;4988680;28;25145;-66
2024/03/04 08:57:06;;;;;;;10.23;4.13;;;;;;;;;;5004461;28;25068;-65
2024/03/04 08:59:32;;;;;;;8.18;3.92;;;;;;;;;;5003456;28;25074;-66
2024/03/04 09:01:58;;;;;;;7.45;3.95;;;;;;;;;;5003245;28;25165;-67
2024/03/04 09:04:25;;;;;;;5.60;4.63;;;;;;;;;;5000772;28;25082;-68
2024/03/04 09:06:51;;;;;;;9.00;3.95;;;;;;;;;;5005568;28;25139;-65
2024/03/04 09:09:17;;;;;;;6.72;4.20;;;;;;;;;;4990833;28;25077;-66
2024/03/04 09:11:43;;;;;;;7.30;4.50;;;;;;;;;;4988993;28;25080;-65
2024/03/04 09:14:09;;;;;;;12.65;5.88;;;;;;;;;;4983127;28;25059;-66
2024/03/04 09:16:35;;;;;;;11.02;4.95;;;;;;;;;;5003906;28;25070;-65
2024/03/04 09:19:01;;;;;;;7.97;4.45;;;;;;;;;;4997408;28;25149;-66
2024/03/04 09:21:27;;;;;;;8.20;4.70;;;;;;;;;;4996708;28;25095;-65
2024/03/04 09:23:53;;;;;;;9.10;4.95;;;;;;;;;;5002854;28;25154;-66
2024/03/04 09:26:19;;;;;;;15.90;6.15;;;;;;;;;;5005146;28;25098;-66
2024/03/04 09:28:52;;;;;;;9.13;5.30;;;;;;;;;;4999120;28;25059;-66
2024/03/04 09:31:18;;;;;;;8.73;5.60;;;;;;;;;;5001732;28;25054;-65
2024/03/04 09:33:44;;;;;;;11.45;6.03;;;;;;;;;;4999555;28;25155;-65
2024/03/04 09:36:10;;;;;;;9.77;5.65;;;;;;;;;;4988031;28;25063;-64
2024/03/04 09:38:36;;;;;;;14.10;6.28;;;;;;;;;;5001710;28;25144;-65
2024/03/04 09:41:03;;;;;;;14.82;6.03;;;;;;;;;;4996372;28;25131;-64
2024/03/04 09:43:29;;;;;;;14.32;6.22;;;;;;;;;;4985567;28;25104;-66
2024/03/04 09:46:00;;;;;;;20.25;6.30;;;;;;;;;;5005312;28;25163;-66
2024/03/04 09:48:27;;;;;;;11.07;5.00;;;;;;;;;;4984293;28;25093;-65
2024/03/04 09:50:54;;;;;;;13.10;5.85;;;;;;;;;;5003969;28;25075;-66
2024/03/04 09:53:21;;;;;;;11.40;6.07;;;;;;;;;;4999931;28;25146;-67
2024/03/04 09:55:48;;;;;;;11.35;6.47;;;;;;;;;;4986733;28;25082;-65
2024/03/04 09:58:15;;;;;;;11.18;6.60;;;;;;;;;;5003355;28;25152;-65
2024/03/04 10:00:41;;;;;;;8.88;5.60;;;;;;;;;;5004165;28;25090;-66
2024/03/04 10:03:08;;;;;;;10.20;5.85;;;;;;;;;;4999839;28;26158;-66
2024/03/04 10:05:34;;;;;;;14.45;6.38;;;;;;;;;;4996268;28;25146;-65
2024/03/04 10:08:00;;;;;;;14.07;6.28;;;;;;;;;;5002236;28;25077;-66
2024/03/04 10:10:27;;;;;;;15.02;7.00;;;;;;;;;;5004251;28;25046;-66
2024/03/04 10:12:53;;;;;;;12.68;6.20;;;;;;;;;;5002604;28;25096;-65
2024/03/04 10:15:23;;;;;;;14.90;6.85;;;;;;;;;;5014047;28;25077;-66
2024/03/04 10:17:50;;;;;;;15.15;7.03;;;;;;;;;;4998406;28;25070;-65
2024/03/04 10:20:16;;;;;;;9.10;6.10;;;;;;;;;;5025332;28;25077;-64
2024/03/04 10:22:43;;;;;;;10.77;7.25;;;;;;;;;;5016870;28;25050;-66
2024/03/04 10:25:13;;;;;;;11.18;6.70;;;;;;;;;;5007387;28;25074;-66
2024/03/04 10:27:40;;;;;;;9.55;6.78;;;;;;;;;;4998508;28;25105;-66
2024/03/04 10:30:12;;;;;;;10.38;7.03;;;;;;;;;;5001831;28;25071;-66
2024/03/04 10:32:38;;;;;;;;;;;;;;;;;;4996875;28;25079;-64
2024/03/04 10:35:04;;;;;;;10.57;7.45;;;;;;;;;;4998055;28;25062;-65
2024/03/04 10:37:31;;;;;;;11.13;7.80;;;;;;;;;;4982739;28;25075;-65
2024/03/04 10:39:57;;;;;;;15.52;8.00;;;;;;;;;;4986421;28;25138;-65
2024/03/04 10:42:23;;;;;;;10.73;7.60;;;;;;;;;;4996115;28;25090;-65
2024/03/04 10:44:50;;;;;;;13.57;7.63;;;;;;;;;;5004164;28;25056;-64
2024/03/04 10:47:16;;;;;;;9.68;7.20;;;;;;;;;;4994160;28;25096;-65
2024/03/04 10:49:43;;;;;;;8.13;7.15;;;;;;;;;;5000098;28;25071;-66
2024/03/04 10:52:09;;;;;;;10.35;6.60;;;;;;;;;;5005501;28;25147;-67
2024/03/04 10:54:35;;;;;;;14.88;8.07;;;;;;;;;;4993355;28;25059;-67
2024/03/04 10:57:05;;;;;;;13.82;7.78;;;;;;;;;;5002165;28;25085;-67
2024/03/04 10:59:38;;;;;;;10.55;8.00;;;;;;;;;;5004302;28;25108;-65
2024/03/04 11:02:08;;;;;;;11.73;8.65;;;;;;;;;;5006876;28;25059;-66
2024/03/04 11:04:34;;;;;;;16.00;8.50;;;;;;;;;;4998991;28;25064;-67
2024/03/04 11:07:01;;;;;;;9.32;7.95;;;;;;;;;;4988275;28;25107;-65
2024/03/04 11:09:27;;;;;;;19.88;9.40;;;;;;;;;;4997483;28;25087;-64
2024/03/04 11:11:56;;;;;;;12.48;7.90;;;;;;;;;;4989437;28;25077;-66
2024/03/04 11:14:32;;;;;;;14.52;7.90;;;;;;;;;;4998781;28;25117;-65
2024/03/04 11:16:57;;;;;;;10.95;7.30;;;;;;;;;;4999061;28;25056;-65
2024/03/04 11:19:37;;;;;;;8.60;7.50;;;;;;;;;;4999482;28;25107;-65
2024/03/04 11:22:04;;;;;;;10.50;6.95;;;;;;;;;;4997021;28;25074;-65
2024/03/04 11:24:31;;;;;;;14.73;6.78;;;;;;;;;;5005989;28;25051;-65
2024/03/04 11:26:59;;;;;;;8.25;6.53;;;;;;;;;;4993516;28;25061;-66
2024/03/04 11:29:25;;;;;;;9.40;6.53;;;;;;;;;;5004257;28;25085;-65
2024/03/04 11:31:56;;;;;;;11.93;6.63;;;;;;;;;;5005655;28;25145;-66
2024/03/04 11:34:22;;;;;;;12.15;6.65;;;;;;;;;;4996392;28;25059;-66
2024/03/04 11:36:51;;;;;;;10.80;6.90;;;;;;;;;;5000362;28;25056;-65
2024/03/04 11:39:20;;;;;;;13.80;7.32;;;;;;;;;;4997517;28;25133;-66
2024/03/04 11:41:48;;;;;;;9.38;5.28;;;;;;;;;;4994425;28;25108;-66
2024/03/04 11:44:34;;;;;;;8.27;5.57;;;;;;;;;;5002347;28;25068;-66
2024/03/04 11:47:10;;;;;;;6.75;4.00;;;;;;;;;;4996868;28;25078;-66
2024/03/04 11:49:45;;;;;;;10.77;4.70;;;;;;;;;;4999695;28;25106;-66
2024/03/04 11:52:15;;;;;;;10.00;4.57;;;;;;;;;;4994403;28;25124;-65
2024/03/04 11:54:44;;;;;;;6.68;4.20;;;;;;;;;;5001957;28;25061;-65
2024/03/04 11:57:10;;;;;;;9.13;4.65;;;;;;;;;;5003709;28;25074;-67
2024/03/04 11:59:39;;;;;;;6.28;3.70;;;;;;;;;;5003182;28;25057;-66
2024/03/04 12:02:13;;;;;;;7.00;4.10;;;;;;;;;;4995166;28;25062;-65
2024/03/04 12:04:42;;;;;;;8.43;4.28;;;;;;;;;;5000296;28;25066;-67
2024/03/04 12:07:08;;;;;;;8.80;4.53;;;;;;;;;;4999329;28;25064;-67
2024/03/04 12:09:34;;;;;;;10.38;5.05;;;;;;;;;;4995417;28;25055;-67
2024/03/04 12:12:04;;;;;;;9.32;4.28;;;;;;;;;;5001029;28;25089;-65
2024/03/04 12:14:30;;;;;;;7.15;4.13;;;;;;;;;;5002609;28;25076;-66
2024/03/04 12:16:57;;;;;;;7.30;3.95;;;;;;;;;;5003608;28;25088;-67
2024/03/04 12:19:24;;;;;;;5.32;3.70;;;;;;;;;;5004319;28;25092;-65
2024/03/04 12:21:50;;;;;;;6.00;3.72;;;;;;;;;;4988825;28;25079;-66
2024/03/04 12:24:19;;;;;;;9.57;5.13;;;;;;;;;;5004686;28;25160;-67
2024/03/04 12:26:51;;;;;;;7.57;5.18;;;;;;;;;;5001445;28;25073;-67
2024/03/04 12:29:25;;;;;;;5.68;4.38;;;;;;;;;;4999614;28;25132;-64
2024/03/04 12:31:55;;;;;;;7.60;4.45;;;;;;;;;;4996414;28;25063;-67
2024/03/04 12:34:21;;;;;;;6.03;4.35;;;;;;;;;;5001542;28;25144;-65
2024/03/04 12:36:51;;;;;;;7.28;4.78;;;;;;;;;;4995330;28;25081;-66
2024/03/04 12:39:21;;;;;;;5.03;4.03;;;;;;;;;;5012307;28;25126;-66
2024/03/04 12:41:50;;;;;;;7.30;3.88;;;;;;;;;;5017461;28;25065;-67
2024/03/04 12:44:20;;;;;;;9.15;3.55;;;;;;;;;;5024059;28;25048;-67
2024/03/04 12:46:48;;;;;;;4.78;2.92;;;;;;;;;;5012241;28;25089;-67
2024/03/04 12:49:16;;;;;;;7.18;3.45;;;;;;;;;;5005211;28;25065;-66
2024/03/04 12:51:42;;;;;;;3.38;2.25;;;;;;;;;;5005310;28;25054;-66
2024/03/04 12:54:08;;;;;;;5.10;2.13;;;;;;;;;;4995492;28;25100;-66
2024/03/04 12:56:34;;;;;;;4.55;3.20;;;;;;;;;;5004173;28;25116;-66
2024/03/04 12:59:01;;;;;;;8.27;3.70;;;;;;;;;;5001605;28;25116;-66
2024/03/04 13:01:27;;;;;;;4.70;3.30;;;;;;;;;;4999359;28;25053;-67
2024/03/04 13:03:55;;;;;;;5.80;3.47;;;;;;;;;;4989930;28;25053;-69
2024/03/04 13:06:21;;;;;;;4.90;3.30;;;;;;;;;;5004142;28;25098;-67
2024/03/04 13:08:47;;;;;;;8.15;3.33;;;;;;;;;;5006134;28;25115;-66
2024/03/04 13:11:13;;;;;;;4.47;3.20;;;;;;;;;;5002111;28;25061;-66
2024/03/04 13:13:39;;;;;;;6.65;3.88;;;;;;;;;;5004931;28;25063;-67
2024/03/04 13:16:06;;;;;;;5.65;4.18;;;;;;;;;;4980565;28;25141;-66
2024/03/04 13:18:32;;;;;;;7.10;4.38;;;;;;;;;;4998175;28;25059;-66
2024/03/04 13:21:02;;;;;;;7.70;5.28;;;;;;;;;;5000717;28;25069;-65
2024/03/04 13:23:28;;;;;;;6.25;3.88;;;;;;;;;;5004491;28;25127;-68
2024/03/04 13:25:54;;;;;;;6.15;4.57;;;;;;;;;;4995687;28;25053;-67
2024/03/04 13:28:20;;;;;;;9.40;3.33;;;;;;;;;;5003428;28;25086;-67
2024/03/04 13:30:47;;;;;;;3.88;3.42;;;;;;;;;;5002387;28;25105;-66
2024/03/04 13:33:13;;;;;;;11.48;3.85;;;;;;;;;;4996392;28;25045;-68
2024/03/04 13:35:39;;;;;;;3.58;3.10;;;;;;;;;;4983657;28;25073;-67
2024/03/04 13:38:05;;;;;;;5.70;3.60;;;;;;;;;;4999585;28;25094;-65
2024/03/04 13:40:31;;;;;;;6.25;4.78;;;;;;;;;;4987262;28;25087;-66
2024/03/04 13:42:57;;;;;;;8.40;4.07;;;;;;;;;;4998810;28;25062;-67
2024/03/04 13:45:22;;;;;;;7.22;3.80;;;;;;;;;;4998681;28;25463;-67
2024/03/04 13:47:48;;;;;;;7.15;4.13;;;;;;;;;;4997662;28;25069;-67
2024/03/04 13:50:14;;;;;;;4.95;4.00;;;;;;;;;;4999050;28;25063;-68
2024/03/04 13:52:41;;;;;;;7.15;4.28;;;;;;;;;;4990906;28;25090;-67
2024/03/04 13:55:08;;;;;;;5.15;4.40;;;;;;;;;;5005557;28;25074;-68
2024/03/04 13:57:34;;;;;;;6.95;4.75;;;;;;;;;;4990260;28;25057;-66
2024/03/04 14:00:00;;;;;;;7.10;3.80;;;;;;;;;;4996256;28;25079;-66
2024/03/04 14:02:26;;;;;;;6.97;3.90;;;;;;;;;;5001432;28;25075;-66
2024/03/04 14:04:52;;;;;;;6.72;3.78;;;;;;;;;;4999234;28;25123;-67
2024/03/04 14:07:18;;;;;;;4.88;2.97;;;;;;;;;;4982522;28;25063;-65
2024/03/04 14:09:44;;;;;;;3.88;2.75;;;;;;;;;;4999241;28;25061;-67
2024/03/04 14:12:10;;;;;;;7.43;3.85;;;;;;;;;;4998537;28;25164;-67
2024/03/04 14:14:36;;;;;;;11.82;3.55;;;;;;;;;;4997984;28;25091;-66
2024/03/04 14:17:02;;;;;;;4.80;3.55;;;;;;;;;;4997647;28;25092;-67
2024/03/04 14:19:29;;;;;;;7.28;4.05;;;;;;;;;;5001427;28;25078;-65
2024/03/04 14:21:55;;;;;;;7.43;3.90;;;;;;;;;;4981901;28;25091;-67
2024/03/04 14:24:20;;;;;;;8.70;3.80;;;;;;;;;;4984159;28;25074;-68
2024/03/04 14:26:46;;;;;;;6.53;3.40;;;;;;;;;;4980465;28;25128;-65
2024/03/04 14:29:13;;;;;;;6.72;4.60;;;;;;;;;;4993413;28;25082;-66
2024/03/04 14:31:39;;;;;;;6.10;4.30;;;;;;;;;;4994927;28;25121;-65
2024/03/04 14:34:05;;;;;;;5.38;4.13;;;;;;;;;;4997692;28;25065;-65
2024/03/04 14:36:31;;;;;;;7.40;4.50;;;;;;;;;;5001263;28;25138;-65